To NAV CANADA Home Page Login to a new session Search on AWWS site Feedback and Comments Disclaimer Vers la page française équivalente Tips FAQ What's new on the site To the Forecasts and Observations / NOTAM section To "File a Flight Plan" website Publications and other links Update of the User's profile FIC Telephone Numbers My Weather Data Folder Route Weather Data Regional Weather Data Local Weather Data To the Forecasts and Observations / NOTAM section
Request Generated 03/28/2017 at 02:19:34 UTC . Weather information available at that time is displayed.

METAR/TAF

SCHEFFERVILLE/QC    (show WxCam)

METAR CYKL 280200Z AUTO 15003KT 9SM BKN110 M12/M22 A3017 RMK SLP267=
METAR CYKL 280100Z AUTO 15004KT 9SM OVC110 M11/M23 A3018 RMK SLP273=
SPECI CYKL 280003Z AUTO 18003KT 6SM HZ SCT120 BKN160 M12/M21 A3018
RMK SLP281=
METAR CYKL 280000Z AUTO 17003KT 060V180 5SM HZ FEW120 SCT140 BKN160
BKN180 M12/M22 A3018 RMK SLP280=

TAF CYKL 280138Z 2802/2814 14008KT P6SM OVC110
FM281200 14008KT P6SM OVC070
RMK FCST BASED ON AUTO OBS. NXT FCST BY 280800Z=
Your time UTC time
Weather data provided by Environment Canada and NAV CANADA